sensor_id;sensor_type;location;lat;lon;timestamp;pressure;altitude;pressure_sealevel;temperature;humidity
3260;BME280;68938;48.150;14.004;2023-04-16T00:01:03;97728.72;;;10.85;74.49
3260;BME280;68938;48.150;14.004;2023-04-16T00:03:30;97729.63;;;10.84;74.62
3260;BME280;68938;48.150;14.004;2023-04-16T00:05:57;97734.03;;;10.80;74.67
3260;BME280;68938;48.150;14.004;2023-04-16T00:08:24;97737.44;;;10.81;74.69
3260;BME280;68938;48.150;14.004;2023-04-16T00:10:54;97740.00;;;10.57;75.83
3260;BME280;68938;48.150;14.004;2023-04-16T00:13:21;97735.94;;;10.52;75.70
3260;BME280;68938;48.150;14.004;2023-04-16T00:15:47;97734.19;;;10.52;75.93
3260;BME280;68938;48.150;14.004;2023-04-16T00:18:15;97740.00;;;10.57;75.71
3260;BME280;68938;48.150;14.004;2023-04-16T00:20:41;97740.66;;;10.62;75.51
3260;BME280;68938;48.150;14.004;2023-04-16T00:23:08;97731.81;;;10.71;75.04
3260;BME280;68938;48.150;14.004;2023-04-16T00:25:35;97735.31;;;10.68;75.19
3260;BME280;68938;48.150;14.004;2023-04-16T00:28:03;97730.16;;;10.70;75.33
3260;BME280;68938;48.150;14.004;2023-04-16T00:30:30;97739.50;;;10.71;75.10
3260;BME280;68938;48.150;14.004;2023-04-16T00:32:57;97742.97;;;10.70;75.27
3260;BME280;68938;48.150;14.004;2023-04-16T00:35:24;97745.06;;;10.59;75.82
3260;BME280;68938;48.150;14.004;2023-04-16T00:37:51;97750.06;;;10.63;75.71
3260;BME280;68938;48.150;14.004;2023-04-16T00:40:18;97747.25;;;10.70;75.56
3260;BME280;68938;48.150;14.004;2023-04-16T00:42:44;97742.34;;;10.63;75.30
3260;BME280;68938;48.150;14.004;2023-04-16T00:45:11;97747.41;;;10.65;75.25
3260;BME280;68938;48.150;14.004;2023-04-16T00:47:38;97750.78;;;10.67;75.45
3260;BME280;68938;48.150;14.004;2023-04-16T00:50:06;97754.38;;;10.61;75.59
3260;BME280;68938;48.150;14.004;2023-04-16T00:52:34;97747.69;;;10.57;75.74
3260;BME280;68938;48.150;14.004;2023-04-16T00:55:00;97751.00;;;10.61;75.65
3260;BME280;68938;48.150;14.004;2023-04-16T00:57:27;97747.25;;;10.46;75.69
3260;BME280;68938;48.150;14.004;2023-04-16T00:59:55;97750.56;;;10.50;76.24
3260;BME280;68938;48.150;14.004;2023-04-16T01:02:22;97744.28;;;10.33;76.37
3260;BME280;68938;48.150;14.004;2023-04-16T01:04:50;97754.38;;;10.38;76.51
3260;BME280;68938;48.150;14.004;2023-04-16T01:07:17;97746.56;;;10.41;75.97
3260;BME280;68938;48.150;14.004;2023-04-16T01:09:43;97748.34;;;10.39;76.46
3260;BME280;68938;48.150;14.004;2023-04-16T01:12:10;97746.63;;;10.39;76.32
3260;BME280;68938;48.150;14.004;2023-04-16T01:14:37;97747.06;;;10.27;76.82
3260;BME280;68938;48.150;14.004;2023-04-16T01:17:04;97741.63;;;10.36;76.19
3260;BME280;68938;48.150;14.004;2023-04-16T01:19:31;97751.69;;;10.41;76.17
3260;BME280;68938;48.150;14.004;2023-04-16T01:21:58;97741.84;;;10.54;75.85
3260;BME280;68938;48.150;14.004;2023-04-16T01:24:25;97753.78;;;10.55;75.74
3260;BME280;68938;48.150;14.004;2023-04-16T01:26:52;97753.69;;;10.56;75.48
3260;BME280;68938;48.150;14.004;2023-04-16T01:29:19;97749.66;;;10.51;75.42
3260;BME280;68938;48.150;14.004;2023-04-16T01:31:46;97752.88;;;10.56;75.43
3260;BME280;68938;48.150;14.004;2023-04-16T01:34:13;97764.25;;;10.49;75.59
3260;BME280;68938;48.150;14.004;2023-04-16T01:36:40;97764.03;;;10.55;75.65
3260;BME280;68938;48.150;14.004;2023-04-16T01:39:07;97768.22;;;10.57;75.14
3260;BME280;68938;48.150;14.004;2023-04-16T01:41:34;97773.44;;;10.54;75.16
3260;BME280;68938;48.150;14.004;2023-04-16T01:44:01;97771.66;;;10.56;75.31
3260;BME280;68938;48.150;14.004;2023-04-16T01:46:31;97772.28;;;10.39;75.27
3260;BME280;68938;48.150;14.004;2023-04-16T01:49:00;97772.38;;;10.36;75.73
3260;BME280;68938;48.150;14.004;2023-04-16T01:51:28;97773.72;;;10.47;75.42
3260;BME280;68938;48.150;14.004;2023-04-16T01:53:55;97770.06;;;10.54;74.95
3260;BME280;68938;48.150;14.004;2023-04-16T01:56:21;97777.28;;;10.66;74.66
3260;BME280;68938;48.150;14.004;2023-04-16T01:58:49;97785.78;;;10.68;74.37
3260;BME280;68938;48.150;14.004;2023-04-16T02:01:15;97781.31;;;10.73;74.41
3260;BME280;68938;48.150;14.004;2023-04-16T02:03:43;97790.41;;;10.82;74.48
3260;BME280;68938;48.150;14.004;2023-04-16T02:06:10;97791.84;;;10.89;74.18
3260;BME280;68938;48.150;14.004;2023-04-16T02:08:37;97788.63;;;10.84;74.05
3260;BME280;68938;48.150;14.004;2023-04-16T02:11:04;97789.47;;;10.84;73.96
3260;BME280;68938;48.150;14.004;2023-04-16T02:13:31;97783.50;;;10.84;73.88
3260;BME280;68938;48.150;14.004;2023-04-16T02:15:58;97793.59;;;10.88;73.79
3260;BME280;68938;48.150;14.004;2023-04-16T02:18:24;97789.28;;;10.89;73.84
3260;BME280;68938;48.150;14.004;2023-04-16T02:20:51;97798.00;;;10.85;73.69
3260;BME280;68938;48.150;14.004;2023-04-16T02:23:18;97795.31;;;10.88;73.72
3260;BME280;68938;48.150;14.004;2023-04-16T02:25:46;97794.44;;;10.89;73.68
3260;BME280;68938;48.150;14.004;2023-04-16T02:28:14;97788.63;;;10.84;73.62
3260;BME280;68938;48.150;14.004;2023-04-16T02:30:42;97786.81;;;10.62;73.88
3260;BME280;68938;48.150;14.004;2023-04-16T02:33:10;97799.28;;;10.50;74.33
3260;BME280;68938;48.150;14.004;2023-04-16T02:35:39;97792.41;;;10.50;74.50
3260;BME280;68938;48.150;14.004;2023-04-16T02:38:06;97783.75;;;10.53;74.51
3260;BME280;68938;48.150;14.004;2023-04-16T02:40:34;97785.66;;;10.48;74.23
3260;BME280;68938;48.150;14.004;2023-04-16T02:43:01;97798.47;;;10.48;73.91
3260;BME280;68938;48.150;14.004;2023-04-16T02:45:28;97794.44;;;10.40;74.18
3260;BME280;68938;48.150;14.004;2023-04-16T02:47:55;97789.34;;;10.39;73.99
3260;BME280;68938;48.150;14.004;2023-04-16T02:50:23;97799.41;;;10.45;73.90
3260;BME280;68938;48.150;14.004;2023-04-16T02:52:50;97801.22;;;10.43;73.50
3260;BME280;68938;48.150;14.004;2023-04-16T02:55:17;97801.97;;;10.45;74.02
3260;BME280;68938;48.150;14.004;2023-04-16T02:57:44;97810.84;;;10.36;74.04
3260;BME280;68938;48.150;14.004;2023-04-16T03:00:11;97815.25;;;10.31;74.62
3260;BME280;68938;48.150;14.004;2023-04-16T03:02:38;97816.25;;;10.27;73.90
3260;BME280;68938;48.150;14.004;2023-04-16T03:05:05;97813.78;;;10.26;74.55
3260;BME280;68938;48.150;14.004;2023-04-16T03:07:32;97813.84;;;10.23;74.66
3260;BME280;68938;48.150;14.004;2023-04-16T03:09:59;97812.03;;;10.00;75.32
3260;BME280;68938;48.150;14.004;2023-04-16T03:12:26;97822.66;;;10.14;74.92
3260;BME280;68938;48.150;14.004;2023-04-16T03:14:53;97811.78;;;10.07;75.15
3260;BME280;68938;48.150;14.004;2023-04-16T03:17:20;97829.03;;;10.02;75.55
3260;BME280;68938;48.150;14.004;2023-04-16T03:19:47;97828.81;;;10.08;75.54
3260;BME280;68938;48.150;14.004;2023-04-16T03:22:13;97836.50;;;10.08;75.24
3260;BME280;68938;48.150;14.004;2023-04-16T03:24:40;97840.66;;;10.12;75.21
3260;BME280;68938;48.150;14.004;2023-04-16T03:27:07;97834.09;;;10.04;75.31
3260;BME280;68938;48.150;14.004;2023-04-16T03:29:37;97842.31;;;10.13;75.15
3260;BME280;68938;48.150;14.004;2023-04-16T03:32:04;97851.47;;;10.20;74.59
3260;BME280;68938;48.150;14.004;2023-04-16T03:34:31;97848.75;;;10.27;74.81
3260;BME280;68938;48.150;14.004;2023-04-16T03:36:58;97854.53;;;10.33;74.38
3260;BME280;68938;48.150;14.004;2023-04-16T03:39:24;97856.97;;;10.36;74.01
3260;BME280;68938;48.150;14.004;2023-04-16T03:41:51;97850.78;;;10.42;73.89
3260;BME280;68938;48.150;14.004;2023-04-16T03:44:18;97857.66;;;10.41;73.77
3260;BME280;68938;48.150;14.004;2023-04-16T03:46:45;97856.81;;;10.41;73.70
3260;BME280;68938;48.150;14.004;2023-04-16T03:49:12;97856.16;;;10.36;73.70
3260;BME280;68938;48.150;14.004;2023-04-16T03:51:39;97868.84;;;10.39;73.96
3260;BME280;68938;48.150;14.004;2023-04-16T03:54:06;97862.03;;;10.38;73.87
3260;BME280;68938;48.150;14.004;2023-04-16T03:56:32;97860.69;;;10.28;73.99
3260;BME280;68938;48.150;14.004;2023-04-16T03:58:59;97864.13;;;10.25;73.93
3260;BME280;68938;48.150;14.004;2023-04-16T04:01:26;97863.31;;;10.25;73.81
3260;BME280;68938;48.150;14.004;2023-04-16T04:03:53;97870.94;;;10.28;73.95
3260;BME280;68938;48.150;14.004;2023-04-16T04:06:20;97871.81;;;10.27;73.91
3260;BME280;68938;48.150;14.004;2023-04-16T04:08:47;97875.13;;;10.30;74.09
3260;BME280;68938;48.150;14.004;2023-04-16T04:11:14;97886.00;;;10.37;73.83
3260;BME280;68938;48.150;14.004;2023-04-16T04:13:41;97887.66;;;10.39;73.66
3260;BME280;68938;48.150;14.004;2023-04-16T04:16:08;97887.88;;;10.32;73.42
3260;BME280;68938;48.150;14.004;2023-04-16T04:18:35;97886.28;;;10.29;73.67
3260;BME280;68938;48.150;14.004;2023-04-16T04:21:06;97890.41;;;10.33;73.80
3260;BME280;68938;48.150;14.004;2023-04-16T04:23:34;97890.31;;;10.36;74.02
3260;BME280;68938;48.150;14.004;2023-04-16T04:26:02;97886.03;;;10.35;73.45
3260;BME280;68938;48.150;14.004;2023-04-16T04:28:33;97895.38;;;10.38;73.44
3260;BME280;68938;48.150;14.004;2023-04-16T04:31:01;97894.44;;;10.40;73.71
3260;BME280;68938;48.150;14.004;2023-04-16T04:33:28;97893.63;;;10.38;73.76
3260;BME280;68938;48.150;14.004;2023-04-16T04:35:54;97897.00;;;10.40;73.71
3260;BME280;68938;48.150;14.004;2023-04-16T04:38:21;97889.41;;;10.37;73.48
3260;BME280;68938;48.150;14.004;2023-04-16T04:40:48;97885.94;;;10.38;73.30
3260;BME280;68938;48.150;14.004;2023-04-16T04:43:15;97896.72;;;10.21;73.96
3260;BME280;68938;48.150;14.004;2023-04-16T04:45:42;97892.84;;;10.10;74.31
3260;BME280;68938;48.150;14.004;2023-04-16T04:48:09;97894.81;;;10.02;74.19
3260;BME280;68938;48.150;14.004;2023-04-16T04:50:36;97907.47;;;10.06;74.06
3260;BME280;68938;48.150;14.004;2023-04-16T04:53:03;97904.22;;;10.01;74.26
3260;BME280;68938;48.150;14.004;2023-04-16T04:55:29;97910.41;;;9.94;74.87
3260;BME280;68938;48.150;14.004;2023-04-16T04:57:56;97914.69;;;9.93;75.11
3260;BME280;68938;48.150;14.004;2023-04-16T05:00:23;97903.31;;;9.76;75.55
3260;BME280;68938;48.150;14.004;2023-04-16T05:02:50;97913.50;;;9.77;75.69
3260;BME280;68938;48.150;14.004;2023-04-16T05:05:17;97915.97;;;9.80;75.45
3260;BME280;68938;48.150;14.004;2023-04-16T05:07:44;97925.97;;;9.88;75.82
3260;BME280;68938;48.150;14.004;2023-04-16T05:10:11;97928.09;;;9.73;75.94
3260;BME280;68938;48.150;14.004;2023-04-16T05:12:38;97929.41;;;9.87;75.88
3260;BME280;68938;48.150;14.004;2023-04-16T05:15:05;97935.09;;;9.96;75.25
3260;BME280;68938;48.150;14.004;2023-04-16T05:17:33;97938.84;;;9.57;76.35
3260;BME280;68938;48.150;14.004;2023-04-16T05:20:00;97937.53;;;9.73;76.57
3260;BME280;68938;48.150;14.004;2023-04-16T05:22:26;97942.84;;;9.95;75.56
3260;BME280;68938;48.150;14.004;2023-04-16T05:24:53;97944.19;;;10.07;74.93
3260;BME280;68938;48.150;14.004;2023-04-16T05:27:20;97948.06;;;10.18;74.86
3260;BME280;68938;48.150;14.004;2023-04-16T05:29:47;97944.44;;;9.99;75.26
3260;BME280;68938;48.150;14.004;2023-04-16T05:32:14;97952.88;;;10.01;75.00
3260;BME280;68938;48.150;14.004;2023-04-16T05:34:41;97953.44;;;10.11;75.56
3260;BME280;68938;48.150;14.004;2023-04-16T05:37:08;97951.53;;;10.17;74.81
3260;BME280;68938;48.150;14.004;2023-04-16T05:39:35;97969.06;;;10.31;74.23
3260;BME280;68938;48.150;14.004;2023-04-16T05:42:01;97974.09;;;10.34;74.02
3260;BME280;68938;48.150;14.004;2023-04-16T05:44:28;97962.78;;;10.41;73.82
3260;BME280;68938;48.150;14.004;2023-04-16T05:46:55;97974.50;;;10.49;73.67
3260;BME280;68938;48.150;14.004;2023-04-16T05:49:22;97969.69;;;10.39;73.60
3260;BME280;68938;48.150;14.004;2023-04-16T05:51:49;97972.13;;;10.42;73.32
3260;BME280;68938;48.150;14.004;2023-04-16T05:54:16;97973.03;;;10.41;73.11
3260;BME280;68938;48.150;14.004;2023-04-16T05:56:43;97972.34;;;10.36;73.45
3260;BME280;68938;48.150;14.004;2023-04-16T05:59:10;97974.81;;;10.39;73.37
3260;BME280;68938;48.150;14.004;2023-04-16T06:01:37;97973.81;;;10.43;72.91
3260;BME280;68938;48.150;14.004;2023-04-16T06:04:04;97982.28;;;10.46;73.48
3260;BME280;68938;48.150;14.004;2023-04-16T06:06:31;97972.91;;;10.46;73.27
3260;BME280;68938;48.150;14.004;2023-04-16T06:08:58;97987.66;;;10.38;73.36
3260;BME280;68938;48.150;14.004;2023-04-16T06:11:25;97993.94;;;10.29;74.02
3260;BME280;68938;48.150;14.004;2023-04-16T06:13:52;97989.09;;;10.18;73.91
3260;BME280;68938;48.150;14.004;2023-04-16T06:16:19;97995.34;;;10.10;74.29
3260;BME280;68938;48.150;14.004;2023-04-16T06:18:46;97992.50;;;10.19;74.33
3260;BME280;68938;48.150;14.004;2023-04-16T06:21:13;98007.91;;;10.19;74.25
3260;BME280;68938;48.150;14.004;2023-04-16T06:23:39;98002.19;;;10.09;74.34
3260;BME280;68938;48.150;14.004;2023-04-16T06:26:06;98008.63;;;10.23;74.71
3260;BME280;68938;48.150;14.004;2023-04-16T06:28:33;98010.72;;;10.39;74.08
3260;BME280;68938;48.150;14.004;2023-04-16T06:31:00;98005.44;;;10.44;73.94
3260;BME280;68938;48.150;14.004;2023-04-16T06:33:27;98010.13;;;10.58;73.32
3260;BME280;68938;48.150;14.004;2023-04-16T06:35:54;98008.38;;;10.58;72.85
3260;BME280;68938;48.150;14.004;2023-04-16T06:38:21;98014.66;;;10.50;73.44
3260;BME280;68938;48.150;14.004;2023-04-16T06:40:47;98013.03;;;10.47;73.46
3260;BME280;68938;48.150;14.004;2023-04-16T06:43:14;98014.50;;;10.54;73.25
3260;BME280;68938;48.150;14.004;2023-04-16T06:45:42;98023.38;;;10.44;74.09
3260;BME280;68938;48.150;14.004;2023-04-16T06:48:09;98019.97;;;10.43;73.58
3260;BME280;68938;48.150;14.004;2023-04-16T06:50:35;98024.53;;;10.62;73.16
3260;BME280;68938;48.150;14.004;2023-04-16T06:53:02;98015.53;;;10.75;72.80
3260;BME280;68938;48.150;14.004;2023-04-16T06:55:29;98021.03;;;10.64;73.21
3260;BME280;68938;48.150;14.004;2023-04-16T06:57:56;98018.81;;;10.54;73.69
3260;BME280;68938;48.150;14.004;2023-04-16T07:00:23;98025.34;;;10.62;72.83
3260;BME280;68938;48.150;14.004;2023-04-16T07:02:50;98022.34;;;10.76;72.93
3260;BME280;68938;48.150;14.004;2023-04-16T07:05:17;98027.13;;;10.87;72.49
3260;BME280;68938;48.150;14.004;2023-04-16T07:07:44;98035.06;;;10.79;72.12
3260;BME280;68938;48.150;14.004;2023-04-16T07:10:10;98033.88;;;10.89;72.35
3260;BME280;68938;48.150;14.004;2023-04-16T07:12:37;98040.34;;;11.01;72.23
3260;BME280;68938;48.150;14.004;2023-04-16T07:15:05;98027.66;;;10.97;71.98
3260;BME280;68938;48.150;14.004;2023-04-16T07:17:33;98036.09;;;11.00;71.37
3260;BME280;68938;48.150;14.004;2023-04-16T07:19:59;98030.59;;;10.86;71.52
3260;BME280;68938;48.150;14.004;2023-04-16T07:22:26;98029.47;;;10.68;72.71
3260;BME280;68938;48.150;14.004;2023-04-16T07:24:53;98038.09;;;10.92;72.26
3260;BME280;68938;48.150;14.004;2023-04-16T07:27:20;98029.66;;;10.88;72.36
3260;BME280;68938;48.150;14.004;2023-04-16T07:29:47;98030.13;;;11.00;72.26
3260;BME280;68938;48.150;14.004;2023-04-16T07:32:14;98031.84;;;10.99;71.54
3260;BME280;68938;48.150;14.004;2023-04-16T07:34:41;98030.53;;;10.61;72.97
3260;BME280;68938;48.150;14.004;2023-04-16T07:37:08;98028.09;;;10.84;72.58
3260;BME280;68938;48.150;14.004;2023-04-16T07:39:35;98025.34;;;10.89;72.28
3260;BME280;68938;48.150;14.004;2023-04-16T07:42:02;98035.53;;;10.92;72.13
3260;BME280;68938;48.150;14.004;2023-04-16T07:44:29;98028.44;;;10.74;72.20
3260;BME280;68938;48.150;14.004;2023-04-16T07:46:56;98031.66;;;10.26;74.29
3260;BME280;68938;48.150;14.004;2023-04-16T07:49:23;98042.00;;;10.49;73.62
3260;BME280;68938;48.150;14.004;2023-04-16T07:51:50;98040.94;;;10.56;74.27
3260;BME280;68938;48.150;14.004;2023-04-16T07:54:17;98050.19;;;10.88;73.74
3260;BME280;68938;48.150;14.004;2023-04-16T07:56:43;98055.06;;;11.21;72.61
3260;BME280;68938;48.150;14.004;2023-04-16T07:59:10;98051.25;;;11.33;71.23
3260;BME280;68938;48.150;14.004;2023-04-16T08:01:48;98051.63;;;11.47;71.44
3260;BME280;68938;48.150;14.004;2023-04-16T08:04:15;98045.44;;;11.03;71.61
3260;BME280;68938;48.150;14.004;2023-04-16T08:06:42;98053.31;;;11.23;71.34
3260;BME280;68938;48.150;14.004;2023-04-16T08:09:09;98045.97;;;11.12;70.81
3260;BME280;68938;48.150;14.004;2023-04-16T08:11:37;98048.75;;;10.53;73.57
3260;BME280;68938;48.150;14.004;2023-04-16T08:14:04;98054.31;;;10.38;74.13
3260;BME280;68938;48.150;14.004;2023-04-16T08:16:31;98054.16;;;10.44;74.18
3260;BME280;68938;48.150;14.004;2023-04-16T08:18:58;98054.28;;;10.67;74.12
3260;BME280;68938;48.150;14.004;2023-04-16T08:21:24;98053.03;;;10.23;73.65
3260;BME280;68938;48.150;14.004;2023-04-16T08:23:52;98059.03;;;10.22;74.20
3260;BME280;68938;48.150;14.004;2023-04-16T08:26:19;98060.25;;;10.68;73.25
3260;BME280;68938;48.150;14.004;2023-04-16T08:28:46;98046.72;;;10.63;72.43
3260;BME280;68938;48.150;14.004;2023-04-16T08:31:13;98061.84;;;10.97;72.07
3260;BME280;68938;48.150;14.004;2023-04-16T08:33:40;98065.69;;;11.10;71.79
3260;BME280;68938;48.150;14.004;2023-04-16T08:36:07;98064.13;;;11.06;71.08
3260;BME280;68938;48.150;14.004;2023-04-16T08:38:34;98064.19;;;11.30;71.19
3260;BME280;68938;48.150;14.004;2023-04-16T08:41:04;98064.38;;;10.99;71.40
3260;BME280;68938;48.150;14.004;2023-04-16T08:43:33;98059.63;;;10.86;72.11
3260;BME280;68938;48.150;14.004;2023-04-16T08:46:04;98063.91;;;10.59;72.97
3260;BME280;68938;48.150;14.004;2023-04-16T08:48:32;98077.31;;;10.96;72.27
3260;BME280;68938;48.150;14.004;2023-04-16T08:51:01;98074.78;;;11.21;72.05
3260;BME280;68938;48.150;14.004;2023-04-16T08:53:34;98088.50;;;11.20;71.65
3260;BME280;68938;48.150;14.004;2023-04-16T08:56:03;98088.91;;;11.59;71.33
3260;BME280;68938;48.150;14.004;2023-04-16T08:58:31;98083.94;;;11.78;70.15
3260;BME280;68938;48.150;14.004;2023-04-16T09:01:02;98094.66;;;11.91;68.40
3260;BME280;68938;48.150;14.004;2023-04-16T09:03:31;98094.38;;;11.48;70.62
3260;BME280;68938;48.150;14.004;2023-04-16T09:06:03;98097.91;;;11.71;70.14
3260;BME280;68938;48.150;14.004;2023-04-16T09:08:33;98093.06;;;11.61;69.55
3260;BME280;68938;48.150;14.004;2023-04-16T09:11:00;98099.88;;;11.12;70.27
3260;BME280;68938;48.150;14.004;2023-04-16T09:13:27;98094.41;;;10.68;73.03
3260;BME280;68938;48.150;14.004;2023-04-16T09:15:54;98105.47;;;11.24;72.02
3260;BME280;68938;48.150;14.004;2023-04-16T09:18:21;98104.88;;;11.42;71.29
3260;BME280;68938;48.150;14.004;2023-04-16T09:20:50;98101.84;;;11.56;71.79
3260;BME280;68938;48.150;14.004;2023-04-16T09:23:17;98101.97;;;11.51;71.71
3260;BME280;68938;48.150;14.004;2023-04-16T09:25:44;98097.59;;;11.80;70.02
3260;BME280;68938;48.150;14.004;2023-04-16T09:28:11;98098.22;;;12.10;69.77
3260;BME280;68938;48.150;14.004;2023-04-16T09:30:38;98102.41;;;11.39;69.52
3260;BME280;68938;48.150;14.004;2023-04-16T09:33:17;98108.22;;;11.19;68.64
3260;BME280;68938;48.150;14.004;2023-04-16T09:35:49;98109.38;;;11.60;69.05
3260;BME280;68938;48.150;14.004;2023-04-16T09:38:18;98110.94;;;11.65;69.61
3260;BME280;68938;48.150;14.004;2023-04-16T09:40:46;98105.03;;;11.88;68.52
3260;BME280;68938;48.150;14.004;2023-04-16T09:43:15;98110.31;;;11.33;68.88
3260;BME280;68938;48.150;14.004;2023-04-16T09:46:03;98124.19;;;11.27;70.76
3260;BME280;68938;48.150;14.004;2023-04-16T09:48:34;98124.22;;;11.77;68.77
3260;BME280;68938;48.150;14.004;2023-04-16T09:51:00;98116.03;;;11.41;69.64
3260;BME280;68938;48.150;14.004;2023-04-16T09:53:29;98127.66;;;11.51;69.40
3260;BME280;68938;48.150;14.004;2023-04-16T09:56:01;98120.75;;;11.78;68.37
3260;BME280;68938;48.150;14.004;2023-04-16T09:58:30;98121.22;;;11.65;68.76
3260;BME280;68938;48.150;14.004;2023-04-16T10:01:08;98118.88;;;11.83;68.09
3260;BME280;68938;48.150;14.004;2023-04-16T10:03:38;98118.69;;;12.13;68.02
3260;BME280;68938;48.150;14.004;2023-04-16T10:06:09;98118.41;;;12.21;67.19
3260;BME280;68938;48.150;14.004;2023-04-16T10:08:45;98121.09;;;12.18;67.31
3260;BME280;68938;48.150;14.004;2023-04-16T10:11:19;98122.53;;;12.01;68.03
3260;BME280;68938;48.150;14.004;2023-04-16T10:13:46;98118.56;;;12.40;66.59
3260;BME280;68938;48.150;14.004;2023-04-16T10:16:14;98120.81;;;11.77;67.25
3260;BME280;68938;48.150;14.004;2023-04-16T10:18:43;98126.69;;;12.29;67.31
3260;BME280;68938;48.150;14.004;2023-04-16T10:21:10;98125.88;;;12.50;66.19
3260;BME280;68938;48.150;14.004;2023-04-16T10:23:38;98133.88;;;12.43;66.83
3260;BME280;68938;48.150;14.004;2023-04-16T10:26:05;98119.13;;;12.48;66.83
3260;BME280;68938;48.150;14.004;2023-04-16T10:28:33;98130.91;;;12.53;67.54
3260;BME280;68938;48.150;14.004;2023-04-16T10:31:05;98131.59;;;12.12;68.59
3260;BME280;68938;48.150;14.004;2023-04-16T10:33:35;98133.22;;;12.14;69.58
3260;BME280;68938;48.150;14.004;2023-04-16T10:36:15;98139.09;;;12.18;69.93
3260;BME280;68938;48.150;14.004;2023-04-16T10:38:48;98139.31;;;12.12;69.75
3260;BME280;68938;48.150;14.004;2023-04-16T10:41:16;98148.38;;;12.22;69.72
3260;BME280;68938;48.150;14.004;2023-04-16T10:43:48;98145.19;;;12.15;69.67
3260;BME280;68938;48.150;14.004;2023-04-16T10:46:24;98138.59;;;12.08;70.35
3260;BME280;68938;48.150;14.004;2023-04-16T10:48:54;98145.84;;;12.20;69.86
3260;BME280;68938;48.150;14.004;2023-04-16T10:53:54;98140.66;;;12.22;70.30
3260;BME280;68938;48.150;14.004;2023-04-16T10:56:35;98146.53;;;12.25;70.59
3260;BME280;68938;48.150;14.004;2023-04-16T10:59:06;98151.59;;;12.27;71.22
3260;BME280;68938;48.150;14.004;2023-04-16T11:01:41;98149.09;;;12.25;71.86
3260;BME280;68938;48.150;14.004;2023-04-16T11:15:03;98153.28;;;12.51;72.18
3260;BME280;68938;48.150;14.004;2023-04-16T11:17:48;98149.50;;;12.60;70.87
3260;BME280;68938;48.150;14.004;2023-04-16T11:20:24;98151.06;;;12.64;71.04
3260;BME280;68938;48.150;14.004;2023-04-16T11:22:55;98144.41;;;12.82;70.34
3260;BME280;68938;48.150;14.004;2023-04-16T11:27:57;98145.47;;;12.98;68.06
3260;BME280;68938;48.150;14.004;2023-04-16T11:30:29;98146.44;;;12.96;69.46
3260;BME280;68938;48.150;14.004;2023-04-16T11:32:58;98134.69;;;13.11;68.59
3260;BME280;68938;48.150;14.004;2023-04-16T11:35:28;98142.59;;;13.06;68.00
3260;BME280;68938;48.150;14.004;2023-04-16T11:37:55;98143.00;;;13.17;67.39
3260;BME280;68938;48.150;14.004;2023-04-16T11:40:23;98144.00;;;13.35;66.16
3260;BME280;68938;48.150;14.004;2023-04-16T11:42:50;98139.81;;;13.11;67.21
3260;BME280;68938;48.150;14.004;2023-04-16T11:45:17;98144.22;;;13.31;67.11
3260;BME280;68938;48.150;14.004;2023-04-16T11:47:46;98147.38;;;13.37;66.46
3260;BME280;68938;48.150;14.004;2023-04-16T11:50:27;98147.94;;;13.22;65.79
3260;BME280;68938;48.150;14.004;2023-04-16T11:52:56;98147.75;;;13.06;65.76
3260;BME280;68938;48.150;14.004;2023-04-16T11:55:24;98145.38;;;13.22;66.14
3260;BME280;68938;48.150;14.004;2023-04-16T11:57:50;98152.19;;;13.02;66.34
3260;BME280;68938;48.150;14.004;2023-04-16T12:00:18;98141.75;;;13.27;66.56
3260;BME280;68938;48.150;14.004;2023-04-16T12:02:53;98145.94;;;13.08;66.33
3260;BME280;68938;48.150;14.004;2023-04-16T12:05:33;98140.34;;;13.19;66.93
3260;BME280;68938;48.150;14.004;2023-04-16T12:08:06;98128.25;;;13.21;66.55
3260;BME280;68938;48.150;14.004;2023-04-16T12:10:52;98136.72;;;13.24;66.38
3260;BME280;68938;48.150;14.004;2023-04-16T12:13:20;98134.78;;;13.30;66.93
3260;BME280;68938;48.150;14.004;2023-04-16T12:18:15;98145.63;;;13.38;65.68
3260;BME280;68938;48.150;14.004;2023-04-16T12:20:44;98142.81;;;13.44;65.94
3260;BME280;68938;48.150;14.004;2023-04-16T12:23:25;98145.50;;;13.41;66.08
3260;BME280;68938;48.150;14.004;2023-04-16T12:25:53;98144.47;;;13.45;65.87
3260;BME280;68938;48.150;14.004;2023-04-16T12:28:31;98141.78;;;13.48;65.73
3260;BME280;68938;48.150;14.004;2023-04-16T12:31:01;98138.75;;;13.59;66.06
3260;BME280;68938;48.150;14.004;2023-04-16T12:33:29;98135.47;;;13.55;65.95
3260;BME280;68938;48.150;14.004;2023-04-16T12:35:56;98141.78;;;13.68;65.84
3260;BME280;68938;48.150;14.004;2023-04-16T12:38:24;98135.47;;;13.75;65.10
3260;BME280;68938;48.150;14.004;2023-04-16T12:40:51;98140.88;;;13.69;64.89
3260;BME280;68938;48.150;14.004;2023-04-16T12:43:19;98138.66;;;13.60;65.33
3260;BME280;68938;48.150;14.004;2023-04-16T12:45:46;98145.31;;;13.66;64.51
3260;BME280;68938;48.150;14.004;2023-04-16T12:48:13;98143.53;;;13.68;64.53
3260;BME280;68938;48.150;14.004;2023-04-16T12:50:40;98140.53;;;13.57;64.47
3260;BME280;68938;48.150;14.004;2023-04-16T12:53:07;98140.88;;;13.49;65.09
3260;BME280;68938;48.150;14.004;2023-04-16T12:55:34;98139.06;;;13.31;65.06
3260;BME280;68938;48.150;14.004;2023-04-16T12:58:01;98144.00;;;13.35;64.41
3260;BME280;68938;48.150;14.004;2023-04-16T13:00:27;98152.22;;;13.01;65.04
3260;BME280;68938;48.150;14.004;2023-04-16T13:02:54;98142.28;;;13.14;65.76
3260;BME280;68938;48.150;14.004;2023-04-16T13:05:21;98139.31;;;13.24;65.69
3260;BME280;68938;48.150;14.004;2023-04-16T13:07:48;98146.34;;;13.19;65.27
3260;BME280;68938;48.150;14.004;2023-04-16T13:10:15;98135.03;;;13.01;64.67
3260;BME280;68938;48.150;14.004;2023-04-16T13:12:42;98136.59;;;13.27;65.17
3260;BME280;68938;48.150;14.004;2023-04-16T13:15:09;98133.97;;;13.29;64.18
3260;BME280;68938;48.150;14.004;2023-04-16T13:17:36;98141.06;;;13.22;64.69
3260;BME280;68938;48.150;14.004;2023-04-16T13:20:03;98138.16;;;13.32;64.44
3260;BME280;68938;48.150;14.004;2023-04-16T13:22:31;98137.44;;;13.28;64.08